sensor_id;sensor_type;location;lat;lon;timestamp;pressure;altitude;pressure_sealevel;temperature;humidity
9335;BME280;4706;41.844;26.082;2023-09-19T00:01:00;101123.91;;;21.46;53.75
9335;BME280;4706;41.844;26.082;2023-09-19T00:03:26;101121.13;;;21.46;53.67
9335;BME280;4706;41.844;26.082;2023-09-19T00:05:52;101127.09;;;21.44;53.76
9335;BME280;4706;41.844;26.082;2023-09-19T00:08:17;101123.72;;;21.39;54.06
9335;BME280;4706;41.844;26.082;2023-09-19T00:10:47;101116.94;;;21.40;54.05
9335;BME280;4706;41.844;26.082;2023-09-19T00:13:13;101111.34;;;21.40;53.87
9335;BME280;4706;41.844;26.082;2023-09-19T00:15:41;101112.44;;;21.35;53.93
9335;BME280;4706;41.844;26.082;2023-09-19T00:18:07;101110.72;;;21.30;54.13
9335;BME280;4706;41.844;26.082;2023-09-19T00:20:37;101116.13;;;21.23;54.05
9335;BME280;4706;41.844;26.082;2023-09-19T00:23:03;101116.94;;;21.24;54.16
9335;BME280;4706;41.844;26.082;2023-09-19T00:25:34;101116.81;;;21.20;54.30
9335;BME280;4706;41.844;26.082;2023-09-19T00:28:04;101119.63;;;21.20;54.42
9335;BME280;4706;41.844;26.082;2023-09-19T00:30:30;101129.09;;;21.16;54.60
9335;BME280;4706;41.844;26.082;2023-09-19T00:32:56;101115.50;;;21.14;54.38
9335;BME280;4706;41.844;26.082;2023-09-19T00:35:22;101099.31;;;21.07;54.09
9335;BME280;4706;41.844;26.082;2023-09-19T00:37:51;101114.13;;;21.08;54.21
9335;BME280;4706;41.844;26.082;2023-09-19T00:40:17;101115.91;;;21.00;54.32
9335;BME280;4706;41.844;26.082;2023-09-19T00:42:44;101117.97;;;20.88;54.10
9335;BME280;4706;41.844;26.082;2023-09-19T00:45:11;101117.25;;;20.91;54.21
9335;BME280;4706;41.844;26.082;2023-09-19T00:47:50;101107.84;;;20.83;54.36
9335;BME280;4706;41.844;26.082;2023-09-19T00:50:20;101118.59;;;20.81;54.58
9335;BME280;4706;41.844;26.082;2023-09-19T00:52:48;101115.53;;;20.86;55.01
9335;BME280;4706;41.844;26.082;2023-09-19T00:55:15;101120.31;;;20.85;54.78
9335;BME280;4706;41.844;26.082;2023-09-19T00:57:41;101122.19;;;20.81;55.20
9335;BME280;4706;41.844;26.082;2023-09-19T01:00:11;101114.25;;;20.83;54.87
9335;BME280;4706;41.844;26.082;2023-09-19T01:02:42;101116.97;;;20.80;54.91
9335;BME280;4706;41.844;26.082;2023-09-19T01:05:09;101126.88;;;20.77;55.08
9335;BME280;4706;41.844;26.082;2023-09-19T01:07:36;101124.59;;;20.67;55.20
9335;BME280;4706;41.844;26.082;2023-09-19T01:10:06;101126.09;;;20.65;55.26
9335;BME280;4706;41.844;26.082;2023-09-19T01:12:54;101128.88;;;20.65;55.68
9335;BME280;4706;41.844;26.082;2023-09-19T01:31:45;101127.53;;;20.58;56.90
9335;BME280;4706;41.844;26.082;2023-09-19T01:34:12;101122.75;;;20.59;56.83
9335;BME280;4706;41.844;26.082;2023-09-19T01:36:38;101122.75;;;20.59;56.86
9335;BME280;4706;41.844;26.082;2023-09-19T01:39:14;101119.84;;;20.55;56.93
9335;BME280;4706;41.844;26.082;2023-09-19T01:44:09;101118.94;;;20.51;57.31
9335;BME280;4706;41.844;26.082;2023-09-19T01:46:40;101128.81;;;20.49;57.28
9335;BME280;4706;41.844;26.082;2023-09-19T01:49:18;101129.88;;;20.44;57.40
9335;BME280;4706;41.844;26.082;2023-09-19T01:52:05;101132.56;;;20.41;57.35
9335;BME280;4706;41.844;26.082;2023-09-19T01:54:45;101136.66;;;20.43;57.11
9335;BME280;4706;41.844;26.082;2023-09-19T01:57:29;101120.59;;;20.40;56.96
9335;BME280;4706;41.844;26.082;2023-09-19T02:00:16;101123.75;;;20.38;57.06
9335;BME280;4706;41.844;26.082;2023-09-19T02:02:47;101128.25;;;20.43;57.17
9335;BME280;4706;41.844;26.082;2023-09-19T02:05:13;101117.41;;;20.42;56.77
9335;BME280;4706;41.844;26.082;2023-09-19T02:07:47;101117.91;;;20.44;56.45
9335;BME280;4706;41.844;26.082;2023-09-19T02:10:13;101121.53;;;20.32;56.92
9335;BME280;4706;41.844;26.082;2023-09-19T02:12:39;101123.28;;;20.36;57.10
9335;BME280;4706;41.844;26.082;2023-09-19T02:15:05;101119.09;;;20.30;56.92
9335;BME280;4706;41.844;26.082;2023-09-19T02:17:33;101132.72;;;20.32;57.17
9335;BME280;4706;41.844;26.082;2023-09-19T02:19:58;101127.94;;;20.32;57.16
9335;BME280;4706;41.844;26.082;2023-09-19T02:22:27;101130.16;;;20.27;57.15
9335;BME280;4706;41.844;26.082;2023-09-19T02:24:53;101125.88;;;20.17;56.99
9335;BME280;4706;41.844;26.082;2023-09-19T02:27:19;101132.53;;;20.12;57.06
9335;BME280;4706;41.844;26.082;2023-09-19T02:29:45;101126.38;;;20.07;57.21
9335;BME280;4706;41.844;26.082;2023-09-19T02:32:10;101125.91;;;20.05;57.68
9335;BME280;4706;41.844;26.082;2023-09-19T02:34:36;101132.41;;;19.97;57.67
9335;BME280;4706;41.844;26.082;2023-09-19T02:37:05;101124.41;;;19.95;57.37
9335;BME280;4706;41.844;26.082;2023-09-19T02:39:31;101132.91;;;19.99;57.55
9335;BME280;4706;41.844;26.082;2023-09-19T02:41:57;101130.09;;;19.99;57.31
9335;BME280;4706;41.844;26.082;2023-09-19T02:44:23;101124.88;;;19.97;57.66
9335;BME280;4706;41.844;26.082;2023-09-19T02:46:49;101126.28;;;19.91;57.80
9335;BME280;4706;41.844;26.082;2023-09-19T02:49:15;101116.88;;;19.83;57.96
9335;BME280;4706;41.844;26.082;2023-09-19T02:51:40;101123.25;;;19.84;57.96
9335;BME280;4706;41.844;26.082;2023-09-19T02:54:07;101123.00;;;19.89;58.29
9335;BME280;4706;41.844;26.082;2023-09-19T02:56:33;101116.06;;;19.83;57.82
9335;BME280;4706;41.844;26.082;2023-09-19T02:58:58;101123.63;;;19.82;57.94
9335;BME280;4706;41.844;26.082;2023-09-19T03:01:26;101114.19;;;19.75;58.12
9335;BME280;4706;41.844;26.082;2023-09-19T03:03:53;101121.16;;;19.81;58.06
9335;BME280;4706;41.844;26.082;2023-09-19T03:06:19;101120.34;;;19.80;57.84
9335;BME280;4706;41.844;26.082;2023-09-19T03:08:45;101119.91;;;19.78;57.90
9335;BME280;4706;41.844;26.082;2023-09-19T03:11:12;101111.06;;;19.76;57.86
9335;BME280;4706;41.844;26.082;2023-09-19T03:13:40;101107.09;;;19.77;58.13
9335;BME280;4706;41.844;26.082;2023-09-19T03:16:07;101093.72;;;19.71;58.45
9335;BME280;4706;41.844;26.082;2023-09-19T03:18:36;101089.88;;;19.63;58.53
9335;BME280;4706;41.844;26.082;2023-09-19T03:21:01;101098.38;;;19.67;58.47
9335;BME280;4706;41.844;26.082;2023-09-19T03:23:28;101096.63;;;19.74;58.20
9335;BME280;4706;41.844;26.082;2023-09-19T03:25:54;101093.63;;;19.67;58.48
9335;BME280;4706;41.844;26.082;2023-09-19T03:28:21;101095.94;;;19.65;58.25
9335;BME280;4706;41.844;26.082;2023-09-19T03:30:58;101082.19;;;19.60;58.09
9335;BME280;4706;41.844;26.082;2023-09-19T03:33:25;101091.28;;;19.69;58.24
9335;BME280;4706;41.844;26.082;2023-09-19T03:35:53;101087.41;;;19.61;58.46
9335;BME280;4706;41.844;26.082;2023-09-19T03:38:19;101087.56;;;19.65;58.38
9335;BME280;4706;41.844;26.082;2023-09-19T03:40:45;101082.41;;;19.55;58.64
9335;BME280;4706;41.844;26.082;2023-09-19T03:43:10;101083.34;;;19.59;58.47
9335;BME280;4706;41.844;26.082;2023-09-19T03:45:36;101090.56;;;19.60;58.29
9335;BME280;4706;41.844;26.082;2023-09-19T03:48:10;101090.78;;;19.55;58.49
9335;BME280;4706;41.844;26.082;2023-09-19T03:50:36;101093.13;;;19.53;58.55
9335;BME280;4706;41.844;26.082;2023-09-19T03:53:02;101089.84;;;19.51;58.75
9335;BME280;4706;41.844;26.082;2023-09-19T03:55:28;101097.78;;;19.49;59.04
9335;BME280;4706;41.844;26.082;2023-09-19T03:57:55;101093.00;;;19.49;59.29
9335;BME280;4706;41.844;26.082;2023-09-19T04:00:20;101094.50;;;19.47;59.45
9335;BME280;4706;41.844;26.082;2023-09-19T04:02:51;101095.69;;;19.46;59.24
9335;BME280;4706;41.844;26.082;2023-09-19T04:05:17;101086.16;;;19.34;59.53
9335;BME280;4706;41.844;26.082;2023-09-19T04:07:43;101093.00;;;19.37;59.57
9335;BME280;4706;41.844;26.082;2023-09-19T04:10:09;101100.78;;;19.44;59.28
9335;BME280;4706;41.844;26.082;2023-09-19T04:12:37;101106.38;;;19.44;59.43
9335;BME280;4706;41.844;26.082;2023-09-19T04:15:05;101107.88;;;19.41;59.79
9335;BME280;4706;41.844;26.082;2023-09-19T04:17:30;101106.84;;;19.33;59.58
9335;BME280;4706;41.844;26.082;2023-09-19T04:19:58;101100.31;;;19.29;59.94
9335;BME280;4706;41.844;26.082;2023-09-19T04:22:23;101104.63;;;19.27;60.08
9335;BME280;4706;41.844;26.082;2023-09-19T04:24:49;101106.84;;;19.33;60.03
9335;BME280;4706;41.844;26.082;2023-09-19T04:27:15;101106.84;;;19.33;60.25
9335;BME280;4706;41.844;26.082;2023-09-19T04:29:40;101106.72;;;19.30;60.34
9335;BME280;4706;41.844;26.082;2023-09-19T04:32:07;101118.44;;;19.35;60.73
9335;BME280;4706;41.844;26.082;2023-09-19T04:34:33;101108.47;;;19.34;60.63
9335;BME280;4706;41.844;26.082;2023-09-19T04:37:00;101113.47;;;19.41;60.75
9335;BME280;4706;41.844;26.082;2023-09-19T04:39:26;101114.28;;;19.41;60.54
9335;BME280;4706;41.844;26.082;2023-09-19T04:41:52;101105.56;;;19.43;60.92
9335;BME280;4706;41.844;26.082;2023-09-19T04:44:18;101105.56;;;19.43;61.24
9335;BME280;4706;41.844;26.082;2023-09-19T04:46:44;101111.00;;;19.52;61.05
9335;BME280;4706;41.844;26.082;2023-09-19T04:49:11;101109.50;;;19.54;60.99
9335;BME280;4706;41.844;26.082;2023-09-19T04:51:38;101109.25;;;19.59;60.58
9335;BME280;4706;41.844;26.082;2023-09-19T04:54:03;101105.66;;;19.59;60.58
9335;BME280;4706;41.844;26.082;2023-09-19T04:56:29;101110.00;;;19.69;60.69
9335;BME280;4706;41.844;26.082;2023-09-19T04:58:55;101109.09;;;19.64;60.73
9335;BME280;4706;41.844;26.082;2023-09-19T05:01:20;101110.69;;;19.65;60.79
9335;BME280;4706;41.844;26.082;2023-09-19T05:03:47;101098.59;;;19.74;60.62
9335;BME280;4706;41.844;26.082;2023-09-19T05:06:20;101110.25;;;19.76;60.80
9335;BME280;4706;41.844;26.082;2023-09-19T05:08:49;101110.69;;;19.78;60.97
9335;BME280;4706;41.844;26.082;2023-09-19T05:11:20;101110.69;;;19.78;60.93
9335;BME280;4706;41.844;26.082;2023-09-19T05:13:50;101110.91;;;19.85;60.53
9335;BME280;4706;41.844;26.082;2023-09-19T05:16:16;101117.91;;;19.91;60.62
9335;BME280;4706;41.844;26.082;2023-09-19T05:18:41;101109.16;;;19.93;60.55
9335;BME280;4706;41.844;26.082;2023-09-19T05:21:07;101106.84;;;19.95;60.15
9335;BME280;4706;41.844;26.082;2023-09-19T05:23:33;101114.63;;;20.01;60.37
9335;BME280;4706;41.844;26.082;2023-09-19T05:25:58;101120.66;;;20.03;60.51
9335;BME280;4706;41.844;26.082;2023-09-19T05:28:25;101110.09;;;20.09;60.44
9335;BME280;4706;41.844;26.082;2023-09-19T05:30:52;101117.16;;;20.19;60.25
9335;BME280;4706;41.844;26.082;2023-09-19T05:33:18;101104.19;;;20.26;59.75
9335;BME280;4706;41.844;26.082;2023-09-19T05:35:44;101097.47;;;20.27;59.47
9335;BME280;4706;41.844;26.082;2023-09-19T05:38:13;101092.78;;;20.31;59.99
9335;BME280;4706;41.844;26.082;2023-09-19T05:40:40;101095.06;;;20.42;59.56
9335;BME280;4706;41.844;26.082;2023-09-19T05:43:10;101112.88;;;20.49;59.58
9335;BME280;4706;41.844;26.082;2023-09-19T05:45:35;101101.09;;;20.56;59.20
9335;BME280;4706;41.844;26.082;2023-09-19T05:48:11;101109.31;;;20.65;59.35
9335;BME280;4706;41.844;26.082;2023-09-19T05:50:39;101103.00;;;20.80;59.24
9335;BME280;4706;41.844;26.082;2023-09-19T05:53:05;101110.69;;;20.99;57.73
9335;BME280;4706;41.844;26.082;2023-09-19T05:55:31;101108.59;;;20.96;58.20
9335;BME280;4706;41.844;26.082;2023-09-19T05:57:57;101108.25;;;20.97;58.56
9335;BME280;4706;41.844;26.082;2023-09-19T06:00:23;101112.13;;;21.08;58.30
9335;BME280;4706;41.844;26.082;2023-09-19T06:02:55;101112.31;;;21.31;57.29
9335;BME280;4706;41.844;26.082;2023-09-19T06:05:24;101118.13;;;21.39;57.65
9335;BME280;4706;41.844;26.082;2023-09-19T06:07:52;101116.59;;;21.57;56.96
9335;BME280;4706;41.844;26.082;2023-09-19T06:10:18;101107.81;;;21.74;56.55
9335;BME280;4706;41.844;26.082;2023-09-19T06:12:46;101114.72;;;21.96;56.52
9335;BME280;4706;41.844;26.082;2023-09-19T06:15:13;101111.44;;;22.10;55.80
9335;BME280;4706;41.844;26.082;2023-09-19T06:17:48;101106.97;;;22.25;55.55
9335;BME280;4706;41.844;26.082;2023-09-19T06:20:14;101125.81;;;22.44;55.44
9335;BME280;4706;41.844;26.082;2023-09-19T06:22:45;101124.63;;;22.64;55.36
9335;BME280;4706;41.844;26.082;2023-09-19T06:25:12;101113.31;;;22.80;54.34
9335;BME280;4706;41.844;26.082;2023-09-19T06:27:41;101114.06;;;22.77;54.41
9335;BME280;4706;41.844;26.082;2023-09-19T06:30:10;101107.47;;;22.89;53.74
9335;BME280;4706;41.844;26.082;2023-09-19T06:32:40;101110.88;;;22.98;53.74
9335;BME280;4706;41.844;26.082;2023-09-19T06:35:10;101118.06;;;23.18;53.82
9335;BME280;4706;41.844;26.082;2023-09-19T06:37:37;101108.16;;;23.47;52.23
9335;BME280;4706;41.844;26.082;2023-09-19T06:40:13;101110.75;;;23.60;52.34
9335;BME280;4706;41.844;26.082;2023-09-19T06:45:08;101106.56;;;23.99;51.60
9335;BME280;4706;41.844;26.082;2023-09-19T06:47:37;101106.50;;;24.22;51.28
9335;BME280;4706;41.844;26.082;2023-09-19T06:50:02;101099.09;;;24.41;50.64
9335;BME280;4706;41.844;26.082;2023-09-19T06:52:29;101099.38;;;24.62;50.27
9335;BME280;4706;41.844;26.082;2023-09-19T06:54:54;101102.03;;;24.85;49.15
9335;BME280;4706;41.844;26.082;2023-09-19T06:57:20;101103.47;;;25.06;48.90
9335;BME280;4706;41.844;26.082;2023-09-19T06:59:45;101098.84;;;25.24;48.36
9335;BME280;4706;41.844;26.082;2023-09-19T07:02:11;101102.09;;;25.30;47.93
9335;BME280;4706;41.844;26.082;2023-09-19T07:04:37;101104.22;;;25.40;48.30
9335;BME280;4706;41.844;26.082;2023-09-19T07:07:02;101107.41;;;25.38;48.47
9335;BME280;4706;41.844;26.082;2023-09-19T07:09:28;101106.34;;;25.57;47.03
9335;BME280;4706;41.844;26.082;2023-09-19T07:11:54;101101.94;;;25.60;47.59
9335;BME280;4706;41.844;26.082;2023-09-19T07:14:19;101098.97;;;25.94;46.49
9335;BME280;4706;41.844;26.082;2023-09-19T07:16:45;101098.69;;;26.13;45.92
9335;BME280;4706;41.844;26.082;2023-09-19T07:19:13;101099.22;;;26.33;45.37
9335;BME280;4706;41.844;26.082;2023-09-19T07:21:40;101099.31;;;26.58;44.94
9335;BME280;4706;41.844;26.082;2023-09-19T07:24:06;101090.53;;;26.84;44.16
9335;BME280;4706;41.844;26.082;2023-09-19T07:26:31;101088.53;;;26.92;44.26
9335;BME280;4706;41.844;26.082;2023-09-19T07:28:57;101079.31;;;27.17;43.75
9335;BME280;4706;41.844;26.082;2023-09-19T07:31:27;101080.94;;;27.43;43.24
9335;BME280;4706;41.844;26.082;2023-09-19T07:33:54;101080.09;;;27.64;42.88
9335;BME280;4706;41.844;26.082;2023-09-19T07:36:19;101076.03;;;27.90;41.97
9335;BME280;4706;41.844;26.082;2023-09-19T07:38:45;101063.06;;;28.06;41.92
9335;BME280;4706;41.844;26.082;2023-09-19T07:41:10;101059.31;;;28.35;41.30
9335;BME280;4706;41.844;26.082;2023-09-19T07:43:36;101068.50;;;28.64;40.55
9335;BME280;4706;41.844;26.082;2023-09-19T07:46:07;101055.03;;;28.82;40.80
9335;BME280;4706;41.844;26.082;2023-09-19T07:48:35;101053.69;;;29.04;39.58
9335;BME280;4706;41.844;26.082;2023-09-19T07:51:02;101046.63;;;29.27;39.32
9335;BME280;4706;41.844;26.082;2023-09-19T07:53:29;101053.75;;;29.46;38.95
9335;BME280;4706;41.844;26.082;2023-09-19T07:56:05;101059.66;;;29.66;38.49
9335;BME280;4706;41.844;26.082;2023-09-19T07:58:32;101054.03;;;29.62;38.38
9335;BME280;4706;41.844;26.082;2023-09-19T08:01:09;101043.72;;;29.79;38.18
9335;BME280;4706;41.844;26.082;2023-09-19T08:03:36;101045.63;;;29.89;37.60
9335;BME280;4706;41.844;26.082;2023-09-19T08:06:06;101045.03;;;30.05;37.20
9335;BME280;4706;41.844;26.082;2023-09-19T08:08:33;101044.91;;;30.16;37.03
9335;BME280;4706;41.844;26.082;2023-09-19T08:11:03;101036.75;;;30.21;36.99
9335;BME280;4706;41.844;26.082;2023-09-19T08:13:29;101034.59;;;30.33;36.96
9335;BME280;4706;41.844;26.082;2023-09-19T08:15:56;101030.69;;;30.50;36.67
9335;BME280;4706;41.844;26.082;2023-09-19T08:18:21;101029.56;;;30.71;36.14
9335;BME280;4706;41.844;26.082;2023-09-19T08:20:52;101029.50;;;30.78;35.58
9335;BME280;4706;41.844;26.082;2023-09-19T08:23:18;101026.00;;;30.94;35.18
9335;BME280;4706;41.844;26.082;2023-09-19T08:25:46;101019.19;;;30.61;35.56
9335;BME280;4706;41.844;26.082;2023-09-19T08:28:11;101029.13;;;30.72;35.59
9335;BME280;4706;41.844;26.082;2023-09-19T08:30:39;101024.84;;;30.61;35.24
9335;BME280;4706;41.844;26.082;2023-09-19T08:33:06;101020.94;;;30.82;35.21
9335;BME280;4706;41.844;26.082;2023-09-19T08:35:33;101019.03;;;30.99;34.87
9335;BME280;4706;41.844;26.082;2023-09-19T08:37:58;101011.69;;;31.25;34.57
9335;BME280;4706;41.844;26.082;2023-09-19T08:40:30;101004.41;;;31.47;34.22
9335;BME280;4706;41.844;26.082;2023-09-19T08:42:59;101001.75;;;31.36;34.14
9335;BME280;4706;41.844;26.082;2023-09-19T08:45:26;100996.44;;;31.38;33.71
9335;BME280;4706;41.844;26.082;2023-09-19T08:48:17;100995.25;;;31.36;33.91
9335;BME280;4706;41.844;26.082;2023-09-19T08:50:48;100985.25;;;31.28;34.10
9335;BME280;4706;41.844;26.082;2023-09-19T08:53:21;100985.88;;;31.39;33.56
9335;BME280;4706;41.844;26.082;2023-09-19T08:55:52;100981.56;;;31.31;33.86
9335;BME280;4706;41.844;26.082;2023-09-19T08:58:26;100972.28;;;31.27;33.63
9335;BME280;4706;41.844;26.082;2023-09-19T09:00:54;100980.72;;;31.54;33.80
9335;BME280;4706;41.844;26.082;2023-09-19T09:03:22;100974.47;;;31.82;33.79
9335;BME280;4706;41.844;26.082;2023-09-19T09:05:50;100975.25;;;31.63;33.25
9335;BME280;4706;41.844;26.082;2023-09-19T09:08:17;100969.00;;;31.72;33.09
9335;BME280;4706;41.844;26.082;2023-09-19T09:10:45;100968.97;;;32.11;32.64
9335;BME280;4706;41.844;26.082;2023-09-19T09:13:11;100957.91;;;32.33;31.77
9335;BME280;4706;41.844;26.082;2023-09-19T09:15:40;100957.41;;;32.38;31.58
9335;BME280;4706;41.844;26.082;2023-09-19T09:18:07;100952.16;;;32.37;32.20
9335;BME280;4706;41.844;26.082;2023-09-19T09:20:32;100956.53;;;32.42;31.81
9335;BME280;4706;41.844;26.082;2023-09-19T09:22:58;100953.44;;;32.52;31.49
9335;BME280;4706;41.844;26.082;2023-09-19T09:25:51;100951.38;;;32.53;31.78
9335;BME280;4706;41.844;26.082;2023-09-19T09:28:21;100947.66;;;32.72;31.60
9335;BME280;4706;41.844;26.082;2023-09-19T09:30:47;100937.44;;;32.22;32.09
9335;BME280;4706;41.844;26.082;2023-09-19T09:33:14;100923.13;;;32.26;31.92
9335;BME280;4706;41.844;26.082;2023-09-19T09:35:48;100925.75;;;32.53;31.43
9335;BME280;4706;41.844;26.082;2023-09-19T09:38:20;100926.56;;;32.70;30.68
9335;BME280;4706;41.844;26.082;2023-09-19T09:40:47;100936.63;;;32.74;31.43
9335;BME280;4706;41.844;26.082;2023-09-19T09:43:28;100936.28;;;32.88;30.80
9335;BME280;4706;41.844;26.082;2023-09-19T09:46:13;100919.34;;;32.98;30.72
9335;BME280;4706;41.844;26.082;2023-09-19T09:49:05;100910.63;;;33.05;30.63
9335;BME280;4706;41.844;26.082;2023-09-19T09:51:42;100919.50;;;33.23;30.43
9335;BME280;4706;41.844;26.082;2023-09-19T09:54:12;100909.28;;;33.39;29.93
9335;BME280;4706;41.844;26.082;2023-09-19T09:56:58;100910.75;;;33.30;30.64
9335;BME280;4706;41.844;26.082;2023-09-19T09:59:46;100913.34;;;33.54;29.85
9335;BME280;4706;41.844;26.082;2023-09-19T10:02:28;100916.91;;;33.58;29.95
9335;BME280;4706;41.844;26.082;2023-09-19T10:04:58;100914.19;;;33.38;29.73
9335;BME280;4706;41.844;26.082;2023-09-19T10:07:40;100903.63;;;32.77;31.03
9335;BME280;4706;41.844;26.082;2023-09-19T10:10:08;100898.63;;;32.97;30.42
9335;BME280;4706;41.844;26.082;2023-09-19T10:12:48;100886.09;;;32.62;30.73
9335;BME280;4706;41.844;26.082;2023-09-19T10:15:18;100884.28;;;32.35;31.33
9335;BME280;4706;41.844;26.082;2023-09-19T10:17:46;100879.63;;;32.09;31.84
9335;BME280;4706;41.844;26.082;2023-09-19T10:20:14;100883.69;;;32.08;31.37
9335;BME280;4706;41.844;26.082;2023-09-19T10:23:04;100885.34;;;32.42;31.33
9335;BME280;4706;41.844;26.082;2023-09-19T10:25:36;100870.75;;;32.72;31.11
9335;BME280;4706;41.844;26.082;2023-09-19T10:28:02;100877.69;;;33.04;30.19
9335;BME280;4706;41.844;26.082;2023-09-19T10:30:31;100874.94;;;33.29;29.78
9335;BME280;4706;41.844;26.082;2023-09-19T10:33:01;100879.69;;;33.49;29.67
9335;BME280;4706;41.844;26.082;2023-09-19T10:35:28;100875.47;;;32.95;30.08
9335;BME280;4706;41.844;26.082;2023-09-19T10:37:59;100877.97;;;32.60;30.54
9335;BME280;4706;41.844;26.082;2023-09-19T10:40:27;100861.59;;;32.48;30.30
9335;BME280;4706;41.844;26.082;2023-09-19T10:43:01;100870.56;;;32.79;29.98
9335;BME280;4706;41.844;26.082;2023-09-19T10:45:30;100859.25;;;32.92;29.86
9335;BME280;4706;41.844;26.082;2023-09-19T10:47:57;100853.63;;;33.05;29.48
9335;BME280;4706;41.844;26.082;2023-09-19T10:50:23;100852.75;;;33.21;29.08
9335;BME280;4706;41.844;26.082;2023-09-19T10:52:53;100841.81;;;33.19;29.29
9335;BME280;4706;41.844;26.082;2023-09-19T10:55:31;100838.44;;;32.95;29.32
9335;BME280;4706;41.844;26.082;2023-09-19T10:57:58;100834.28;;;33.12;29.67
9335;BME280;4706;41.844;26.082;2023-09-19T11:00:58;100836.88;;;33.07;29.70
9335;BME280;4706;41.844;26.082;2023-09-19T11:04:29;100830.66;;;32.50;30.69
9335;BME280;4706;41.844;26.082;2023-09-19T11:07:09;100817.91;;;32.55;30.51
9335;BME280;4706;41.844;26.082;2023-09-19T11:09:52;100819.44;;;32.43;30.74
9335;BME280;4706;41.844;26.082;2023-09-19T11:26:48;100796.03;;;33.39;29.16
9335;BME280;4706;41.844;26.082;2023-09-19T11:29:40;100792.25;;;33.29;28.95
9335;BME280;4706;41.844;26.082;2023-09-19T11:32:06;100801.41;;;33.37;28.76
9335;BME280;4706;41.844;26.082;2023-09-19T11:34:45;100791.88;;;33.15;29.10
9335;BME280;4706;41.844;26.082;2023-09-19T11:48:15;100773.28;;;32.81;29.52
9335;BME280;4706;41.844;26.082;2023-09-19T11:50:44;100764.06;;;33.19;28.79
9335;BME280;4706;41.844;26.082;2023-09-19T11:53:13;100767.97;;;33.38;28.43
9335;BME280;4706;41.844;26.082;2023-09-19T11:55:42;100763.53;;;33.36;28.42
9335;BME280;4706;41.844;26.082;2023-09-19T11:58:09;100761.63;;;33.46;28.67
9335;BME280;4706;41.844;26.082;2023-09-19T12:00:38;100755.47;;;33.73;28.33
9335;BME280;4706;41.844;26.082;2023-09-19T12:03:10;100758.91;;;33.68;28.01
9335;BME280;4706;41.844;26.082;2023-09-19T12:05:36;100745.66;;;33.62;27.86
9335;BME280;4706;41.844;26.082;2023-09-19T12:08:03;100743.94;;;33.64;28.38
9335;BME280;4706;41.844;26.082;2023-09-19T12:10:33;100735.16;;;33.84;28.04
9335;BME280;4706;41.844;26.082;2023-09-19T12:12:58;100733.66;;;34.05;27.53
9335;BME280;4706;41.844;26.082;2023-09-19T12:15:28;100723.69;;;34.22;27.72
9335;BME280;4706;41.844;26.082;2023-09-19T12:18:00;100725.19;;;34.62;27.28
9335;BME280;4706;41.844;26.082;2023-09-19T12:20:42;100722.38;;;34.71;26.77
9335;BME280;4706;41.844;26.082;2023-09-19T12:23:13;100712.75;;;34.77;26.58
9335;BME280;4706;41.844;26.082;2023-09-19T12:25:43;100707.78;;;34.91;26.42
9335;BME280;4706;41.844;26.082;2023-09-19T12:28:14;100708.22;;;34.89;26.50
9335;BME280;4706;41.844;26.082;2023-09-19T12:30:42;100702.34;;;35.06;26.22
9335;BME280;4706;41.844;26.082;2023-09-19T12:33:17;100703.31;;;35.12;26.00
9335;BME280;4706;41.844;26.082;2023-09-19T12:35:45;100695.72;;;35.18;26.38
9335;BME280;4706;41.844;26.082;2023-09-19T12:38:11;100699.31;;;35.40;25.99
9335;BME280;4706;41.844;26.082;2023-09-19T12:40:38;100700.81;;;35.23;25.63
9335;BME280;4706;41.844;26.082;2023-09-19T12:43:08;100679.00;;;34.63;25.93
9335;BME280;4706;41.844;26.082;2023-09-19T12:45:35;100691.56;;;34.66;25.97
9335;BME280;4706;41.844;26.082;2023-09-19T12:48:21;100697.34;;;34.40;26.27
9335;BME280;4706;41.844;26.082;2023-09-19T12:51:07;100692.75;;;34.21;26.95
9335;BME280;4706;41.844;26.082;2023-09-19T12:53:37;100681.63;;;34.01;26.58
9335;BME280;4706;41.844;26.082;2023-09-19T12:56:08;100687.53;;;33.94;26.59
9335;BME280;4706;41.844;26.082;2023-09-19T12:58:48;100683.13;;;33.67;27.00
9335;BME280;4706;41.844;26.082;2023-09-19T13:01:15;100678.94;;;33.59;27.37
9335;BME280;4706;41.844;26.082;2023-09-19T13:03:41;100681.91;;;33.55;27.49
9335;BME280;4706;41.844;26.082;2023-09-19T13:06:07;100669.00;;;33.64;27.46
9335;BME280;4706;41.844;26.082;2023-09-19T13:08:37;100673.53;;;33.74;27.23
9335;BME280;4706;41.844;26.082;2023-09-19T13:11:14;100661.44;;;33.19;27.97
9335;BME280;4706;41.844;26.082;2023-09-19T13:13:46;100664.50;;;33.24;27.79
9335;BME280;4706;41.844;26.082;2023-09-19T13:16:19;100651.53;;;33.23;27.93
9335;BME280;4706;41.844;26.082;2023-09-19T13:18:54;100659.28;;;33.23;27.46
9335;BME280;4706;41.844;26.082;2023-09-19T13:21:34;100649.91;;;33.09;28.09
9335;BME280;4706;41.844;26.082;2023-09-19T13:24:18;100654.25;;;33.01;28.23
9335;BME280;4706;41.844;26.082;2023-09-19T13:26:44;100649.81;;;33.00;28.47
9335;BME280;4706;41.844;26.082;2023-09-19T13:29:11;100653.44;;;33.01;28.25
9335;BME280;4706;41.844;26.082;2023-09-19T13:31:36;100651.97;;;32.96;28.33
9335;BME280;4706;41.844;26.082;2023-09-19T13:34:06;100653.31;;;32.92;28.15
9335;BME280;4706;41.844;26.082;2023-09-19T13:36:32;100656.59;;;32.90;28.04
9335;BME280;4706;41.844;26.082;2023-09-19T13:38:57;100652.63;;;32.87;27.81
9335;BME280;4706;41.844;26.082;2023-09-19T13:41:24;100656.00;;;32.82;27.94
9335;BME280;4706;41.844;26.082;2023-09-19T13:43:49;100646.47;;;32.47;28.29
9335;BME280;4706;41.844;26.082;2023-09-19T13:46:15;100647.00;;;32.42;28.43
9335;BME280;4706;41.844;26.082;2023-09-19T13:48:42;100642.13;;;32.43;28.61
9335;BME280;4706;41.844;26.082;2023-09-19T13:51:08;100636.72;;;32.15;28.31
9335;BME280;4706;41.844;26.082;2023-09-19T13:53:33;100638.69;;;32.19;28.36
9335;BME280;4706;41.844;26.082;2023-09-19T13:55:59;100639.53;;;32.03;28.58
9335;BME280;4706;41.844;26.082;2023-09-19T13:58:25;100633.38;;;32.04;29.06